Time,TemperatureF,DewpointF,PressureIn,WindDirection,WindDirectionDegrees,WindSpeedMPH,WindSpeedGustMPH,Humidity,HourlyPrecipIn,Conditions,Clouds,dailyrainin,SoftwareType,DateUTC
2013-03-12 00:21:00,54.0,35.0,30.08,North,0,0.0,-999.0,49,0.00,,,-99.99,,2013-03-12 07:21:00,
2013-03-12 00:32:00,54.0,35.0,30.08,North,0,0.0,-999.0,49,0.00,,,-99.99,,2013-03-12 07:32:00,
2013-03-12 01:22:00,53.0,39.0,30.07,West,280,2.0,-999.0,60,0.00,,,-99.99,,2013-03-12 08:22:00,
2013-03-12 01:32:00,53.0,39.0,30.07,West,280,2.0,-999.0,60,0.00,,,-99.99,,2013-03-12 08:32:00,
2013-03-12 01:42:00,53.0,39.0,30.07,West,280,2.0,-999.0,60,0.00,,,-99.99,,2013-03-12 08:42:00,
2013-03-12 01:52:00,53.0,39.0,30.07,West,280,2.0,-999.0,60,0.00,,,-99.99,,2013-03-12 08:52:00,
2013-03-12 02:22:00,56.0,43.0,30.06,East,90,5.0,-999.0,62,0.00,,,-99.99,,2013-03-12 09:22:00,
2013-03-12 02:32:00,56.0,43.0,30.06,East,90,5.0,-999.0,62,0.00,,,-99.99,,2013-03-12 09:32:00,
2013-03-12 03:22:00,56.0,38.0,30.05,North,0,0.0,-999.0,51,0.00,,,-99.99,,2013-03-12 10:22:00,
2013-03-12 03:32:00,56.0,38.0,30.05,North,0,0.0,-999.0,51,0.00,,,-99.99,,2013-03-12 10:32:00,
2013-03-12 04:22:00,57.0,37.0,30.02,North,0,0.0,-999.0,47,0.00,,,-99.99,,2013-03-12 11:22:00,
2013-03-12 04:32:00,57.0,37.0,30.02,North,0,0.0,-999.0,47,0.00,,,-99.99,,2013-03-12 11:32:00,
2013-03-12 05:22:00,57.0,40.0,30.02,North,0,0.0,-999.0,52,0.00,,,-99.99,,2013-03-12 12:22:00,
2013-03-12 05:32:00,57.0,40.0,30.02,North,0,0.0,-999.0,52,0.00,,,-99.99,,2013-03-12 12:32:00,
2013-03-12 06:22:00,58.0,37.0,30.01,North,0,0.0,-999.0,46,0.00,,,-99.99,,2013-03-12 13:22:00,
2013-03-12 06:32:00,58.0,37.0,30.01,North,0,0.0,-999.0,46,0.00,,,-99.99,,2013-03-12 13:32:00,
2013-03-12 07:22:00,56.0,39.0,30.02,North,10,1.0,-999.0,52,0.00,,,-99.99,,2013-03-12 14:22:00,
2013-03-12 07:32:00,56.0,39.0,30.02,North,10,1.0,-999.0,52,0.00,,,-99.99,,2013-03-12 14:32:00,
2013-03-12 08:22:00,59.0,33.0,30.03,North,0,0.0,-999.0,37,0.00,,,-99.99,,2013-03-12 15:22:00,
2013-03-12 09:22:00,62.0,44.0,30.06,East,90,2.0,-999.0,52,0.00,,,-99.99,,2013-03-12 16:22:00,
2013-03-12 09:32:00,62.0,44.0,30.06,East,90,2.0,-999.0,52,0.00,,,-99.99,,2013-03-12 16:32:00,
2013-03-12 09:42:00,62.0,44.0,30.06,East,90,2.0,-999.0,52,0.00,,,-99.99,,2013-03-12 16:42:00,
2013-03-12 09:52:00,62.0,44.0,30.06,East,90,2.0,-999.0,52,0.00,,,-99.99,,2013-03-12 16:52:00,
2013-03-12 10:22:00,64.0,47.0,30.07,North,0,0.0,-999.0,54,0.00,,,-99.99,,2013-03-12 17:22:00,
2013-03-12 10:33:00,64.0,47.0,30.07,North,0,0.0,-999.0,54,0.00,,,-99.99,,2013-03-12 17:33:00,
2013-03-12 10:43:00,64.0,47.0,30.07,North,0,0.0,-999.0,54,0.00,,,-99.99,,2013-03-12 17:43:00,
2013-03-12 10:53:00,64.0,47.0,30.07,North,0,0.0,-999.0,54,0.00,,,-99.99,,2013-03-12 17:53:00,
2013-03-12 11:22:00,60.0,49.0,30.07,North,0,0.0,-999.0,68,0.00,,,-99.99,,2013-03-12 18:22:00,
2013-03-12 11:33:00,60.0,49.0,30.07,North,0,0.0,-999.0,68,0.00,,,-99.99,,2013-03-12 18:33:00,
2013-03-12 11:42:00,60.0,49.0,30.07,North,0,0.0,-999.0,68,0.00,,,-99.99,,2013-03-12 18:42:00,
2013-03-12 11:53:00,60.0,49.0,30.07,North,0,0.0,-999.0,68,0.00,,,-99.99,,2013-03-12 18:53:00,
2013-03-12 12:22:00,65.0,50.0,30.07,East,100,1.0,-999.0,59,0.00,,,-99.99,,2013-03-12 19:22:00,
2013-03-12 12:33:00,65.0,50.0,30.07,East,100,1.0,-999.0,59,0.00,,,-99.99,,2013-03-12 19:33:00,
2013-03-12 12:43:00,65.0,50.0,30.07,East,100,1.0,-999.0,59,0.00,,,-99.99,,2013-03-12 19:43:00,
2013-03-12 12:52:00,65.0,50.0,30.07,East,100,1.0,-999.0,59,0.00,,,-99.99,,2013-03-12 19:52:00,
2013-03-12 13:22:00,67.0,52.0,30.06,West,280,3.0,-999.0,59,0.00,,,-99.99,,2013-03-12 20:22:00,
2013-03-12 13:32:00,67.0,52.0,30.06,West,280,3.0,-999.0,59,0.00,,,-99.99,,2013-03-12 20:32:00,
2013-03-12 13:42:00,67.0,52.0,30.06,West,280,3.0,-999.0,59,0.00,,,-99.99,,2013-03-12 20:42:00,
2013-03-12 13:52:00,67.0,52.0,30.06,West,280,3.0,-999.0,59,0.00,,,-99.99,,2013-03-12 20:52:00,
2013-03-12 14:22:00,68.0,50.0,30.04,West,270,4.0,-999.0,53,0.00,,,-99.99,,2013-03-12 21:22:00,
2013-03-12 14:32:00,68.0,50.0,30.04,West,270,4.0,-999.0,53,0.00,,,-99.99,,2013-03-12 21:32:00,
2013-03-12 14:42:00,68.0,50.0,30.04,West,270,4.0,-999.0,53,0.00,,,-99.99,,2013-03-12 21:42:00,
2013-03-12 14:52:00,68.0,50.0,30.04,West,270,4.0,-999.0,53,0.00,,,-99.99,,2013-03-12 21:52:00,
2013-03-12 15:22:00,71.0,47.0,30.02,West,270,4.0,-999.0,43,0.00,,,-99.99,,2013-03-12 22:22:00,
2013-03-12 15:32:00,71.0,47.0,30.02,West,270,4.0,-999.0,43,0.00,,,-99.99,,2013-03-12 22:32:00,
2013-03-12 15:42:00,71.0,47.0,30.02,West,270,4.0,-999.0,43,0.00,,,-99.99,,2013-03-12 22:42:00,
2013-03-12 15:52:00,71.0,47.0,30.02,West,270,4.0,-999.0,43,0.00,,,-99.99,,2013-03-12 22:52:00,
2013-03-12 16:22:00,72.0,48.0,30.01,West,260,4.0,-999.0,43,0.00,,,-99.99,,2013-03-12 23:22:00,
2013-03-12 16:34:00,72.0,48.0,30.01,West,260,4.0,-999.0,43,0.00,,,-99.99,,2013-03-12 23:34:00,
2013-03-12 16:43:00,72.0,48.0,30.01,West,260,4.0,-999.0,43,0.00,,,-99.99,,2013-03-12 23:43:00,
2013-03-12 16:52:00,72.0,48.0,30.01,West,260,4.0,-999.0,43,0.00,,,-99.99,,2013-03-12 23:52:00,
2013-03-12 17:22:00,73.0,53.0,30.00,West,270,4.0,-999.0,50,0.00,,,-99.99,,2013-03-13 00:22:00,
2013-03-12 17:33:00,73.0,53.0,30.00,West,270,4.0,-999.0,50,0.00,,,-99.99,,2013-03-13 00:33:00,
2013-03-12 17:42:00,73.0,53.0,30.00,West,270,4.0,-999.0,50,0.00,,,-99.99,,2013-03-13 00:42:00,
2013-03-12 17:52:00,73.0,53.0,30.00,West,270,4.0,-999.0,50,0.00,,,-99.99,,2013-03-13 00:52:00,
2013-03-12 18:22:00,73.0,53.0,30.00,West,270,2.0,-999.0,49,0.00,,,-99.99,,2013-03-13 01:22:00,
2013-03-12 18:32:00,73.0,53.0,30.00,West,270,2.0,-999.0,49,0.00,,,-99.99,,2013-03-13 01:32:00,
2013-03-12 18:42:00,73.0,53.0,30.00,West,270,2.0,-999.0,49,0.00,,,-99.99,,2013-03-13 01:42:00,
2013-03-12 18:52:00,73.0,53.0,30.00,West,270,2.0,-999.0,49,0.00,,,-99.99,,2013-03-13 01:52:00,
2013-03-12 19:22:00,70.0,46.0,30.01,NNW,340,4.0,-999.0,42,0.00,,,-99.99,,2013-03-13 02:22:00,
2013-03-12 19:32:00,70.0,46.0,30.01,NNW,340,4.0,-999.0,42,0.00,,,-99.99,,2013-03-13 02:32:00,
2013-03-12 19:42:00,70.0,46.0,30.01,NNW,340,4.0,-999.0,42,0.00,,,-99.99,,2013-03-13 02:42:00,
2013-03-12 19:52:00,70.0,46.0,30.01,NNW,340,4.0,-999.0,42,0.00,,,-99.99,,2013-03-13 02:52:00,
2013-03-12 20:22:00,68.0,42.0,30.03,North,0,0.0,-999.0,39,0.00,,,-99.99,,2013-03-13 03:22:00,
2013-03-12 20:32:00,68.0,42.0,30.03,North,0,0.0,-999.0,39,0.00,,,-99.99,,2013-03-13 03:32:00,
2013-03-12 20:42:00,68.0,42.0,30.03,North,0,0.0,-999.0,39,0.00,,,-99.99,,2013-03-13 03:42:00,
2013-03-12 20:52:00,68.0,42.0,30.03,North,0,0.0,-999.0,39,0.00,,,-99.99,,2013-03-13 03:52:00,
2013-03-12 21:22:00,67.0,44.0,30.05,NW,320,1.0,-999.0,43,0.00,,,-99.99,,2013-03-13 04:22:00,
2013-03-12 21:32:00,67.0,44.0,30.05,NW,320,1.0,-999.0,43,0.00,,,-99.99,,2013-03-13 04:32:00,
2013-03-12 22:22:00,66.0,44.0,30.07,North,360,3.0,-999.0,45,0.00,,,-99.99,,2013-03-13 05:22:00,
2013-03-12 22:32:00,66.0,44.0,30.07,North,360,3.0,-999.0,45,0.00,,,-99.99,,2013-03-13 05:32:00,
2013-03-12 23:22:00,65.0,39.0,30.08,North,0,0.0,-999.0,38,0.00,,,-99.99,,2013-03-13 06:22:00,
2013-03-12 23:32:00,65.0,39.0,30.08,North,0,0.0,-999.0,38,0.00,,,-99.99,,2013-03-13 06:32:00,